createdAt,value
2018-03-11T00:00:13.265Z,8.73
2018-03-11T00:01:13.261Z,8.62
2018-03-11T00:02:13.260Z,8.74
2018-03-11T00:03:13.254Z,8.65
2018-03-11T00:04:13.250Z,8.71
2018-03-11T00:05:13.246Z,8.71
2018-03-11T00:06:13.242Z,8.71
2018-03-11T00:07:13.237Z,8.66
2018-03-11T00:08:13.232Z,8.68
2018-03-11T00:09:13.230Z,8.70
2018-03-11T00:10:13.225Z,8.66
2018-03-11T00:11:13.226Z,8.71
2018-03-11T00:12:13.215Z,8.66
2018-03-11T00:13:13.212Z,8.70
2018-03-11T00:14:13.207Z,8.70
2018-03-11T00:15:13.203Z,8.77
2018-03-11T00:16:13.202Z,8.73
2018-03-11T00:17:13.196Z,8.66
2018-03-11T00:18:13.193Z,8.73
2018-03-11T00:19:13.186Z,8.68
2018-03-11T00:20:13.184Z,8.65
2018-03-11T00:21:13.183Z,8.55
2018-03-11T00:22:13.176Z,8.55
2018-03-11T00:23:13.171Z,8.55
2018-03-11T00:24:13.166Z,8.63
2018-03-11T00:25:13.163Z,8.61
2018-03-11T00:26:13.158Z,8.59
2018-03-11T00:27:13.154Z,8.61
2018-03-11T00:28:13.152Z,8.58
2018-03-11T00:29:13.148Z,8.59
2018-03-11T00:30:13.141Z,8.53
2018-03-11T00:31:13.138Z,8.58
2018-03-11T00:32:13.132Z,8.52
2018-03-11T00:33:13.129Z,8.55
2018-03-11T00:34:13.125Z,8.47
2018-03-11T00:35:13.120Z,8.47
2018-03-11T00:36:13.117Z,8.52
2018-03-11T00:37:13.112Z,8.50
2018-03-11T00:38:13.109Z,8.47
2018-03-11T00:39:13.102Z,8.43
2018-03-11T00:40:13.100Z,8.45
2018-03-11T00:41:13.094Z,8.43
2018-03-11T00:42:13.090Z,8.40
2018-03-11T00:43:13.142Z,8.28
2018-03-11T00:44:13.082Z,8.30
2018-03-11T00:45:13.079Z,8.29
2018-03-11T00:46:13.074Z,8.23
2018-03-11T00:47:13.069Z,8.16
2018-03-11T00:48:13.069Z,8.22
2018-03-11T00:49:13.060Z,8.12
2018-03-11T00:50:13.056Z,8.16
2018-03-11T00:51:13.052Z,8.05
2018-03-11T00:52:13.047Z,8.04
2018-03-11T00:53:13.043Z,8.05
2018-03-11T00:54:13.037Z,8.05
2018-03-11T00:55:13.035Z,8.08
2018-03-11T00:56:13.031Z,8.05
2018-03-11T00:57:13.023Z,8.04
2018-03-11T00:58:13.022Z,8.01
2018-03-11T00:59:13.016Z,8.02
2018-03-11T01:00:13.011Z,8.01
2018-03-11T01:01:13.008Z,8.07
2018-03-11T01:02:13.003Z,8.07
2018-03-11T01:03:12.997Z,8.01
2018-03-11T01:04:13.000Z,8.04
2018-03-11T01:05:12.990Z,8.00
2018-03-11T01:06:12.986Z,8.02
2018-03-11T01:07:12.981Z,8.04
2018-03-11T01:08:12.976Z,8.08
2018-03-11T01:09:12.973Z,8.00
2018-03-11T01:10:12.966Z,8.02
2018-03-11T01:11:12.964Z,7.97
2018-03-11T01:12:12.962Z,8.11
2018-03-11T01:13:12.953Z,8.02
2018-03-11T01:14:12.949Z,8.00
2018-03-11T01:15:12.944Z,8.02
2018-03-11T01:16:12.962Z,8.05
2018-03-11T01:17:12.935Z,8.02
2018-03-11T01:18:12.931Z,8.02
2018-03-11T01:19:12.928Z,8.02
2018-03-11T01:20:12.922Z,8.08
2018-03-11T01:21:12.917Z,8.02
2018-03-11T01:22:12.914Z,8.05
2018-03-11T01:23:12.910Z,8.04
2018-03-11T01:24:12.906Z,8.02
2018-03-11T01:25:12.900Z,8.12
2018-03-11T01:26:12.895Z,8.19
2018-03-11T01:27:12.891Z,8.15
2018-03-11T01:28:12.884Z,8.16
2018-03-11T01:29:12.881Z,8.22
2018-03-11T01:30:12.880Z,8.19
2018-03-11T01:31:12.875Z,8.22
2018-03-11T01:32:12.869Z,8.12
2018-03-11T01:33:12.864Z,8.22
2018-03-11T01:34:12.859Z,8.12
2018-03-11T01:35:12.855Z,8.18
2018-03-11T01:36:12.850Z,8.23
2018-03-11T01:37:12.845Z,8.22
2018-03-11T01:38:12.841Z,8.23
2018-03-11T01:39:12.836Z,8.16
2018-03-11T01:40:12.833Z,8.19
2018-03-11T01:41:12.828Z,8.19
2018-03-11T01:42:12.824Z,8.18
2018-03-11T01:43:12.828Z,8.11
2018-03-11T01:44:12.814Z,8.12
2018-03-11T01:45:12.810Z,8.16
2018-03-11T01:46:12.805Z,8.16
2018-03-11T01:47:12.799Z,8.26
2018-03-11T01:48:12.796Z,8.26
2018-03-11T01:49:12.793Z,8.16
2018-03-11T01:50:12.787Z,8.12
2018-03-11T01:51:12.782Z,8.16
2018-03-11T01:52:12.776Z,8.20
2018-03-11T01:53:12.774Z,8.16
2018-03-11T01:54:12.770Z,8.15
2018-03-11T01:55:12.764Z,8.08
2018-03-11T01:56:12.758Z,8.11
2018-03-11T01:57:12.756Z,8.16
2018-03-11T01:58:12.751Z,8.11
2018-03-11T01:59:12.746Z,8.11
2018-03-11T02:00:12.745Z,8.23
2018-03-11T02:01:12.737Z,8.22
2018-03-11T02:02:12.734Z,8.18
2018-03-11T02:03:12.727Z,8.23
2018-03-11T02:04:12.721Z,8.23
2018-03-11T02:05:12.718Z,8.23
2018-03-11T02:06:12.714Z,8.20
2018-03-11T02:07:12.708Z,8.20
2018-03-11T02:08:12.705Z,8.16
2018-03-11T02:09:12.701Z,8.16
2018-03-11T02:10:12.696Z,8.12
2018-03-11T02:11:12.689Z,8.15
2018-03-11T02:12:12.686Z,8.26
2018-03-11T02:13:12.684Z,8.15
2018-03-11T02:14:12.681Z,8.15
2018-03-11T02:15:12.672Z,8.15
2018-03-11T02:16:12.668Z,8.18
2018-03-11T02:17:12.663Z,8.18
2018-03-11T02:18:12.660Z,8.16
2018-03-11T02:19:12.653Z,8.16
2018-03-11T02:20:12.648Z,8.20
2018-03-11T02:21:12.647Z,8.12
2018-03-11T02:22:12.642Z,8.10
2018-03-11T02:23:12.639Z,8.07
2018-03-11T02:24:12.630Z,8.02
2018-03-11T02:25:12.626Z,8.02
2018-03-11T02:26:12.622Z,8.04
2018-03-11T02:27:12.617Z,8.02
2018-03-11T02:28:12.613Z,8.00
2018-03-11T02:29:12.608Z,8.02
2018-03-11T02:30:12.604Z,7.93
2018-03-11T02:31:12.600Z,8.01
2018-03-11T02:32:12.598Z,7.93
2018-03-11T02:33:12.595Z,7.93
2018-03-11T02:34:12.586Z,7.95
2018-03-11T02:35:12.583Z,7.83
2018-03-11T02:36:12.576Z,7.87
2018-03-11T02:37:12.570Z,7.89
2018-03-11T02:38:12.567Z,7.83
2018-03-11T02:39:12.562Z,7.82
2018-03-11T02:40:12.558Z,7.77
2018-03-11T02:41:12.555Z,7.80
2018-03-11T02:42:12.548Z,7.82
2018-03-11T02:43:12.543Z,7.83
2018-03-11T02:44:12.537Z,7.83
2018-03-11T02:45:12.533Z,7.72
2018-03-11T02:46:12.530Z,7.74
2018-03-11T02:47:12.528Z,7.71
2018-03-11T02:48:12.516Z,7.75
2018-03-11T02:49:12.515Z,7.68
2018-03-11T02:50:12.510Z,7.71
2018-03-11T02:51:12.509Z,7.68
2018-03-11T02:52:12.500Z,7.55
2018-03-11T02:53:12.496Z,7.58
2018-03-11T02:54:12.495Z,7.57
2018-03-11T02:55:12.485Z,7.60
2018-03-11T02:56:12.482Z,7.55
2018-03-11T02:57:12.477Z,7.60
2018-03-11T02:58:12.473Z,7.61
2018-03-11T02:59:12.467Z,7.58
2018-03-11T03:00:12.462Z,7.60
2018-03-11T03:01:12.461Z,7.57
2018-03-11T03:02:12.454Z,7.49
2018-03-11T03:03:12.448Z,7.39
2018-03-11T03:04:12.443Z,7.42
2018-03-11T03:05:12.439Z,7.37
2018-03-11T03:06:12.434Z,7.40
2018-03-11T03:07:12.433Z,7.34
2018-03-11T03:08:12.424Z,7.39
2018-03-11T03:09:12.421Z,7.39
2018-03-11T03:10:12.414Z,7.40
2018-03-11T03:11:12.408Z,7.40
2018-03-11T03:12:12.405Z,7.35
2018-03-11T03:13:12.399Z,7.28
2018-03-11T03:14:12.395Z,7.32
2018-03-11T03:15:12.389Z,7.21
2018-03-11T03:16:12.385Z,7.17
2018-03-11T03:17:12.382Z,7.16
2018-03-11T03:18:12.375Z,7.12
2018-03-11T03:19:12.368Z,6.98
2018-03-11T03:20:12.365Z,6.97
2018-03-11T03:21:12.360Z,6.97
2018-03-11T03:22:12.354Z,6.97
2018-03-11T03:23:12.352Z,7.03
2018-03-11T03:24:12.344Z,7.03
2018-03-11T03:25:12.342Z,6.89
2018-03-11T03:26:12.335Z,6.98
2018-03-11T03:27:12.329Z,6.95
2018-03-11T03:28:12.324Z,6.98
2018-03-11T03:29:12.320Z,6.91
2018-03-11T03:30:12.316Z,6.97
2018-03-11T03:31:12.309Z,6.95
2018-03-11T03:32:12.306Z,6.89
2018-03-11T03:33:12.299Z,6.98
2018-03-11T03:34:12.294Z,7.02
2018-03-11T03:35:12.288Z,6.97
2018-03-11T03:36:12.283Z,6.98
2018-03-11T03:37:12.279Z,6.88
2018-03-11T03:38:12.274Z,6.89
2018-03-11T03:39:12.267Z,6.84
2018-03-11T03:40:12.264Z,6.84
2018-03-11T03:41:12.259Z,6.80
2018-03-11T03:42:12.254Z,6.89
2018-03-11T03:43:12.248Z,6.80
2018-03-11T03:44:12.242Z,6.79
2018-03-11T03:45:12.236Z,6.81
2018-03-11T03:46:12.233Z,6.69
2018-03-11T03:47:12.226Z,6.69
2018-03-11T03:48:12.223Z,6.73
2018-03-11T03:49:12.216Z,6.70
2018-03-11T03:50:12.212Z,6.76
2018-03-11T03:51:12.208Z,6.71
2018-03-11T03:52:12.203Z,6.70
2018-03-11T03:53:12.194Z,6.76
2018-03-11T03:54:12.192Z,6.64
2018-03-11T03:55:12.187Z,6.67
2018-03-11T03:56:12.180Z,6.59
2018-03-11T03:57:12.174Z,6.51
2018-03-11T03:58:12.168Z,6.51
2018-03-11T03:59:12.164Z,6.56
2018-03-11T04:00:12.161Z,6.44
2018-03-11T04:01:12.152Z,6.54
2018-03-11T04:02:12.148Z,6.58
2018-03-11T04:03:12.141Z,6.56
2018-03-11T04:04:12.137Z,6.49
2018-03-11T04:05:12.134Z,6.55
2018-03-11T04:06:12.124Z,6.54
2018-03-11T04:07:12.120Z,6.58
2018-03-11T04:08:12.115Z,6.66
2018-03-11T04:09:12.116Z,6.61
2018-03-11T04:10:12.104Z,6.67
2018-03-11T04:11:12.099Z,6.74
2018-03-11T04:12:12.093Z,6.71
2018-03-11T04:13:12.089Z,6.67
2018-03-11T04:14:12.090Z,6.67
2018-03-11T04:15:12.077Z,6.64
2018-03-11T04:16:12.073Z,6.70
2018-03-11T04:17:12.068Z,6.74
2018-03-11T04:18:12.062Z,6.73
2018-03-11T04:19:12.056Z,6.79
2018-03-11T04:20:12.050Z,6.71
2018-03-11T04:21:12.047Z,6.66
2018-03-11T04:22:12.042Z,6.64
2018-03-11T04:23:12.036Z,6.71
2018-03-11T04:24:12.029Z,6.74
2018-03-11T04:25:12.023Z,6.85
2018-03-11T04:26:12.017Z,6.84
2018-03-11T04:27:12.013Z,6.88
2018-03-11T04:28:12.010Z,6.84
2018-03-11T04:29:12.002Z,6.81
2018-03-11T04:30:11.999Z,6.84
2018-03-11T04:31:11.991Z,6.80
2018-03-11T04:32:11.986Z,6.87
2018-03-11T04:33:11.983Z,6.85
2018-03-11T04:34:11.976Z,6.89
2018-03-11T04:35:11.969Z,6.91
2018-03-11T04:36:11.964Z,6.91
2018-03-11T04:37:11.958Z,6.99
2018-03-11T04:38:11.954Z,6.87
2018-03-11T04:39:11.947Z,6.99
2018-03-11T04:40:11.943Z,6.81
2018-03-11T04:41:11.938Z,6.84
2018-03-11T04:42:11.932Z,6.91
2018-03-11T04:43:11.926Z,6.91
2018-03-11T04:44:11.925Z,6.89
2018-03-11T04:45:11.916Z,6.89
2018-03-11T04:46:11.943Z,6.81
2018-03-11T04:47:11.903Z,6.87
2018-03-11T04:48:11.897Z,6.88
2018-03-11T04:49:11.893Z,6.85
2018-03-11T04:50:11.889Z,6.76
2018-03-11T04:51:11.882Z,6.85
2018-03-11T04:52:11.878Z,6.76
2018-03-11T04:53:11.871Z,6.81
2018-03-11T04:54:11.867Z,6.84
2018-03-11T04:55:11.859Z,6.77
2018-03-11T04:56:11.855Z,6.80
2018-03-11T04:57:11.851Z,6.80
2018-03-11T04:58:11.845Z,6.79
2018-03-11T04:59:11.838Z,6.84
2018-03-11T05:00:11.832Z,6.77
2018-03-11T05:01:11.826Z,6.88
2018-03-11T05:02:11.823Z,6.81
2018-03-11T05:03:11.817Z,6.87
2018-03-11T05:04:11.810Z,6.84
2018-03-11T05:05:11.806Z,6.81
2018-03-11T05:06:11.804Z,6.81
2018-03-11T05:07:11.797Z,6.85
2018-03-11T05:08:11.792Z,6.87
2018-03-11T05:09:11.784Z,6.85
2018-03-11T05:10:11.777Z,6.85
2018-03-11T05:11:11.773Z,6.88
2018-03-11T05:12:11.766Z,6.88
2018-03-11T05:13:11.763Z,6.92
2018-03-11T05:14:11.757Z,6.92
2018-03-11T05:15:11.752Z,6.91
2018-03-11T05:16:11.746Z,6.87
2018-03-11T05:17:11.741Z,6.84
2018-03-11T05:18:11.735Z,6.85
2018-03-11T05:19:11.732Z,6.85
2018-03-11T05:20:11.725Z,6.81
2018-03-11T05:21:11.718Z,6.85
2018-03-11T05:22:11.713Z,6.92
2018-03-11T05:23:11.706Z,6.84
2018-03-11T05:24:11.701Z,6.81
2018-03-11T05:25:11.696Z,6.84
2018-03-11T05:26:11.690Z,6.80
2018-03-11T05:27:11.686Z,6.85
2018-03-11T05:28:11.679Z,6.76
2018-03-11T05:29:11.674Z,6.89
2018-03-11T05:30:11.672Z,6.89
2018-03-11T05:31:11.663Z,6.85
2018-03-11T05:32:11.659Z,6.97
2018-03-11T05:33:11.658Z,6.98
2018-03-11T05:34:11.647Z,6.88
2018-03-11T05:35:11.640Z,6.80
2018-03-11T05:36:11.637Z,6.81
2018-03-11T05:37:11.630Z,6.80
2018-03-11T05:38:11.624Z,6.62
2018-03-11T05:39:11.618Z,6.71
2018-03-11T05:40:11.613Z,6.73
2018-03-11T05:41:11.612Z,6.70
2018-03-11T05:42:11.604Z,6.73
2018-03-11T05:43:11.599Z,6.71
2018-03-11T05:44:11.591Z,6.67
2018-03-11T05:45:11.587Z,6.70
2018-03-11T05:46:11.582Z,6.79
2018-03-11T05:47:11.573Z,6.76
2018-03-11T05:48:11.568Z,6.81
2018-03-11T05:49:11.561Z,6.77
2018-03-11T05:50:11.558Z,6.84
2018-03-11T05:51:11.549Z,6.79
2018-03-11T05:52:11.548Z,6.89
2018-03-11T05:53:11.544Z,6.89
2018-03-11T05:54:11.539Z,6.94
2018-03-11T05:55:11.532Z,6.88
2018-03-11T05:56:11.525Z,6.89
2018-03-11T05:57:11.519Z,6.87
2018-03-11T05:58:11.513Z,6.94
2018-03-11T05:59:11.508Z,6.85
2018-03-11T06:00:11.502Z,6.89
2018-03-11T06:01:11.498Z,6.84
2018-03-11T06:02:11.492Z,6.89
2018-03-11T06:03:11.486Z,6.88
2018-03-11T06:04:11.481Z,6.98
2018-03-11T06:05:11.475Z,6.97
2018-03-11T06:06:11.469Z,6.97
2018-03-11T06:07:11.466Z,6.99
2018-03-11T06:08:11.458Z,7.07
2018-03-11T06:09:11.454Z,7.10
2018-03-11T06:10:11.449Z,7.13
2018-03-11T06:11:11.440Z,7.15
2018-03-11T06:12:11.437Z,7.25
2018-03-11T06:13:11.431Z,7.23
2018-03-11T06:14:11.427Z,7.34
2018-03-11T06:15:11.422Z,7.35
2018-03-11T06:16:11.421Z,7.24
2018-03-11T06:17:11.411Z,7.35
2018-03-11T06:18:11.407Z,7.40
2018-03-11T06:19:11.400Z,7.37
2018-03-11T06:20:11.394Z,7.40
2018-03-11T06:21:11.390Z,7.50
2018-03-11T06:22:11.383Z,7.48
2018-03-11T06:23:11.379Z,7.49
2018-03-11T06:24:11.373Z,7.57
2018-03-11T06:25:11.372Z,7.55
2018-03-11T06:26:11.360Z,7.68
2018-03-11T06:27:11.360Z,7.77
2018-03-11T06:28:11.353Z,7.72
2018-03-11T06:29:11.347Z,7.69
2018-03-11T06:30:11.343Z,7.80
2018-03-11T06:31:11.336Z,7.86
2018-03-11T06:32:11.332Z,7.85
2018-03-11T06:33:11.327Z,7.82
2018-03-11T06:34:11.322Z,7.89
2018-03-11T06:35:11.316Z,8.01
2018-03-11T06:36:11.313Z,8.23
2018-03-11T06:37:11.308Z,8.43
2018-03-11T06:38:11.302Z,8.41
2018-03-11T06:39:11.297Z,8.33
2018-03-11T06:40:11.294Z,8.26
2018-03-11T06:41:11.287Z,8.44
2018-03-11T06:42:11.283Z,8.62
2018-03-11T06:43:11.280Z,8.70
2018-03-11T06:44:11.295Z,8.89
2018-03-11T06:45:11.267Z,9.43
2018-03-11T06:46:11.264Z,10.17
2018-03-11T06:47:11.257Z,10.33
2018-03-11T06:48:11.252Z,10.45
2018-03-11T06:49:11.248Z,10.59
2018-03-11T06:50:11.246Z,11.11
2018-03-11T06:51:11.240Z,11.62
2018-03-11T06:52:11.248Z,11.82
2018-03-11T06:53:11.232Z,12.20
2018-03-11T06:54:11.228Z,12.53
2018-03-11T06:55:11.272Z,12.54
2018-03-11T06:56:11.219Z,12.31
2018-03-11T06:57:11.224Z,12.13
2018-03-11T06:58:11.280Z,12.56
2018-03-11T06:59:11.207Z,12.82
2018-03-11T07:00:11.206Z,12.83
2018-03-11T07:01:11.202Z,13.04
2018-03-11T07:02:11.204Z,12.85
2018-03-11T07:03:11.199Z,13.23
2018-03-11T07:04:11.193Z,13.45
2018-03-11T07:05:11.189Z,13.97
2018-03-11T07:06:11.187Z,14.33
2018-03-11T07:07:11.184Z,14.40
2018-03-11T07:08:11.183Z,14.28
2018-03-11T07:09:11.202Z,14.25
2018-03-11T07:10:11.178Z,13.85
2018-03-11T07:11:11.175Z,13.30
2018-03-11T07:12:11.174Z,12.83
2018-03-11T07:13:11.171Z,12.50
2018-03-11T07:14:11.168Z,12.09
2018-03-11T07:15:11.167Z,11.75
2018-03-11T07:16:11.165Z,11.60
2018-03-11T07:17:11.164Z,11.54
2018-03-11T07:18:11.161Z,11.49
2018-03-11T07:19:11.159Z,11.36
2018-03-11T07:20:11.156Z,11.21
2018-03-11T07:21:11.158Z,11.09
2018-03-11T07:22:11.204Z,11.06
2018-03-11T07:23:11.147Z,11.09
2018-03-11T07:24:11.146Z,10.99
2018-03-11T07:25:11.144Z,10.76
2018-03-11T07:26:11.142Z,10.63
2018-03-11T07:27:11.138Z,10.52
2018-03-11T07:28:11.136Z,10.40
2018-03-11T07:29:11.133Z,10.44
2018-03-11T07:30:11.136Z,10.53
2018-03-11T07:31:11.178Z,10.48
2018-03-11T07:32:11.124Z,10.55
2018-03-11T07:33:11.123Z,10.48
2018-03-11T07:34:11.120Z,10.42
2018-03-11T07:35:11.118Z,10.42
2018-03-11T07:36:11.113Z,10.41
2018-03-11T07:37:11.111Z,10.44
2018-03-11T07:38:11.109Z,10.42
2018-03-11T07:39:11.107Z,10.53
2018-03-11T07:40:11.101Z,10.60
2018-03-11T07:41:11.100Z,10.56
2018-03-11T07:42:11.096Z,10.60
2018-03-11T07:43:11.094Z,10.53
2018-03-11T07:44:11.091Z,10.53
2018-03-11T07:45:11.087Z,10.51
2018-03-11T07:46:11.085Z,10.51
2018-03-11T07:47:11.081Z,10.63
2018-03-11T07:48:11.079Z,10.59
2018-03-11T07:49:11.122Z,10.64
2018-03-11T07:50:11.074Z,10.61
2018-03-11T07:51:11.068Z,10.68
2018-03-11T07:52:11.068Z,10.71
2018-03-11T07:53:11.065Z,10.68
2018-03-11T07:54:11.060Z,10.74
2018-03-11T07:55:11.057Z,10.78
2018-03-11T07:56:11.053Z,10.81
2018-03-11T07:57:11.050Z,10.88
2018-03-11T07:58:11.049Z,10.84
2018-03-11T07:59:11.043Z,10.94
2018-03-11T08:00:11.042Z,10.85
2018-03-11T08:01:11.038Z,10.89
2018-03-11T08:02:11.034Z,10.97
2018-03-11T08:03:11.035Z,10.94
2018-03-11T08:04:11.028Z,10.96
2018-03-11T08:05:11.026Z,10.99
2018-03-11T08:06:11.026Z,10.96
2018-03-11T08:07:11.018Z,11.00
2018-03-11T08:08:11.021Z,11.07
2018-03-11T08:09:11.016Z,11.04
2018-03-11T08:10:11.009Z,11.02
2018-03-11T08:11:11.007Z,11.06
2018-03-11T08:12:11.003Z,11.07
2018-03-11T08:13:11.000Z,11.09
2018-03-11T08:14:10.997Z,11.22
2018-03-11T08:15:10.994Z,11.28
2018-03-11T08:16:10.991Z,11.24
2018-03-11T08:17:10.988Z,11.18
2018-03-11T08:18:10.986Z,11.17
2018-03-11T08:19:10.986Z,11.21
2018-03-11T08:20:10.979Z,11.25
2018-03-11T08:21:10.974Z,11.35
2018-03-11T08:22:10.974Z,11.39
2018-03-11T08:23:10.968Z,11.39
2018-03-11T08:24:10.967Z,11.37
2018-03-11T08:25:10.968Z,11.36
2018-03-11T08:26:10.961Z,11.49
2018-03-11T08:27:10.962Z,11.39
2018-03-11T08:28:10.959Z,11.44
2018-03-11T08:29:10.952Z,11.52
2018-03-11T08:30:10.949Z,11.61
2018-03-11T08:31:10.971Z,11.55
2018-03-11T08:32:10.949Z,11.58
2018-03-11T08:33:10.940Z,11.55
2018-03-11T08:34:10.938Z,11.52
2018-03-11T08:35:10.935Z,11.54
2018-03-11T08:36:10.932Z,11.57
2018-03-11T08:37:10.933Z,11.65
2018-03-11T08:38:10.927Z,11.60
2018-03-11T08:39:10.924Z,11.78
2018-03-11T08:40:10.924Z,11.82
2018-03-11T08:41:10.916Z,11.82
2018-03-11T08:42:10.918Z,11.90
2018-03-11T08:43:10.914Z,11.96
2018-03-11T08:44:10.911Z,11.86
2018-03-11T08:45:10.910Z,11.98
2018-03-11T08:46:10.905Z,11.99
2018-03-11T08:47:10.901Z,12.07
2018-03-11T08:48:10.900Z,12.02
2018-03-11T08:49:10.899Z,12.02
2018-03-11T08:50:10.894Z,12.14
2018-03-11T08:51:10.891Z,12.09
2018-03-11T08:52:10.884Z,12.17
2018-03-11T08:53:10.887Z,12.13
2018-03-11T08:54:10.884Z,12.20
2018-03-11T08:55:10.883Z,12.17
2018-03-11T08:56:10.879Z,12.19
2018-03-11T08:57:10.876Z,12.23
2018-03-11T08:58:10.876Z,12.24
2018-03-11T08:59:10.871Z,12.28
2018-03-11T09:00:10.871Z,12.31
2018-03-11T09:01:10.866Z,12.13
2018-03-11T09:02:10.866Z,12.24
2018-03-11T09:03:10.862Z,12.32
2018-03-11T09:04:10.860Z,12.32
2018-03-11T09:05:10.858Z,12.49
2018-03-11T09:06:10.856Z,12.47
2018-03-11T09:07:10.852Z,12.45
2018-03-11T09:08:10.854Z,12.53
2018-03-11T09:09:10.850Z,12.50
2018-03-11T09:10:10.848Z,12.53
2018-03-11T09:11:10.844Z,12.59
2018-03-11T09:12:10.843Z,12.62
2018-03-11T09:13:10.842Z,12.57
2018-03-11T09:14:10.838Z,12.74
2018-03-11T09:15:10.838Z,12.74
2018-03-11T09:16:10.828Z,12.77
2018-03-11T09:17:10.834Z,12.78
2018-03-11T09:18:10.833Z,12.64
2018-03-11T09:19:10.832Z,12.74
2018-03-11T09:20:10.826Z,12.78
2018-03-11T09:21:10.827Z,12.77
2018-03-11T09:22:10.823Z,12.82
2018-03-11T09:23:10.822Z,12.92
2018-03-11T09:24:10.818Z,12.87
2018-03-11T09:25:10.818Z,12.90
2018-03-11T09:26:10.816Z,13.03
2018-03-11T09:27:10.813Z,13.04
2018-03-11T09:28:10.811Z,13.01
2018-03-11T09:29:10.814Z,13.11
2018-03-11T09:30:10.835Z,13.12
2018-03-11T09:31:10.813Z,13.22
2018-03-11T09:32:10.809Z,13.23
2018-03-11T09:33:10.801Z,13.15
2018-03-11T09:34:10.801Z,13.23
2018-03-11T09:35:10.798Z,13.23
2018-03-11T09:36:10.796Z,13.23
2018-03-11T09:37:10.793Z,13.32
2018-03-11T09:38:10.798Z,13.41
2018-03-11T09:39:10.792Z,13.45
2018-03-11T09:40:10.794Z,13.66
2018-03-11T09:41:10.789Z,13.70
2018-03-11T09:42:10.787Z,13.69
2018-03-11T09:43:10.786Z,13.70
2018-03-11T09:44:10.786Z,13.69
2018-03-11T09:45:10.783Z,13.79
2018-03-11T09:46:10.780Z,13.71
2018-03-11T09:47:10.780Z,13.73
2018-03-11T09:48:10.778Z,13.87
2018-03-11T09:49:10.777Z,13.85
2018-03-11T09:50:10.775Z,13.66
2018-03-11T09:51:10.776Z,13.75
2018-03-11T09:52:10.773Z,13.69
2018-03-11T09:53:10.772Z,13.70
2018-03-11T09:54:10.770Z,13.67
2018-03-11T09:55:10.769Z,13.62
2018-03-11T09:56:10.767Z,13.69
2018-03-11T09:57:10.807Z,13.63
2018-03-11T09:58:10.766Z,13.71
2018-03-11T09:59:10.859Z,13.70
2018-03-11T10:00:10.765Z,13.79
2018-03-11T10:01:10.762Z,13.75
2018-03-11T10:02:10.762Z,13.87
2018-03-11T10:03:10.763Z,13.85
2018-03-11T10:04:10.758Z,13.95
2018-03-11T10:05:10.757Z,13.95
2018-03-11T10:06:10.777Z,13.96
2018-03-11T10:07:10.756Z,14.00
2018-03-11T10:08:10.753Z,14.07
2018-03-11T10:09:10.757Z,14.15
2018-03-11T10:10:10.776Z,14.20
2018-03-11T10:11:10.756Z,14.22
2018-03-11T10:12:10.748Z,14.15
2018-03-11T10:13:10.753Z,14.17
2018-03-11T10:14:10.750Z,14.20
2018-03-11T10:15:10.743Z,14.17
2018-03-11T10:16:10.744Z,14.25
2018-03-11T10:17:10.745Z,14.29
2018-03-11T10:18:10.748Z,14.32
2018-03-11T10:19:10.776Z,14.42
2018-03-11T10:20:10.744Z,14.54
2018-03-11T10:21:10.741Z,14.60
2018-03-11T10:22:10.744Z,14.54
2018-03-11T10:23:10.742Z,14.57
2018-03-11T10:24:10.743Z,14.73
2018-03-11T10:25:10.739Z,14.73
2018-03-11T10:26:10.738Z,14.88
2018-03-11T10:27:10.736Z,14.98
2018-03-11T10:28:10.739Z,14.89
2018-03-11T10:29:10.734Z,14.96
2018-03-11T10:30:10.753Z,14.86
2018-03-11T10:31:10.738Z,14.96
2018-03-11T10:32:10.733Z,15.16
2018-03-11T10:33:10.734Z,15.28
2018-03-11T10:34:10.734Z,15.29
2018-03-11T10:35:10.732Z,15.14
2018-03-11T10:36:10.733Z,15.16
2018-03-11T10:37:10.737Z,15.17
2018-03-11T10:38:10.735Z,15.01
2018-03-11T10:39:10.728Z,14.96
2018-03-11T10:40:10.731Z,15.07
2018-03-11T10:41:10.732Z,15.09
2018-03-11T10:42:10.732Z,15.16
2018-03-11T10:43:10.734Z,15.14
2018-03-11T10:44:10.729Z,15.14
2018-03-11T10:45:10.731Z,15.29
2018-03-11T10:46:10.731Z,15.28
2018-03-11T10:47:10.730Z,15.38
2018-03-11T10:48:10.728Z,15.36
2018-03-11T10:49:10.754Z,15.47
2018-03-11T10:50:10.731Z,15.17
2018-03-11T10:51:10.734Z,15.23
2018-03-11T10:52:10.729Z,15.28
2018-03-11T10:53:10.730Z,15.29
2018-03-11T10:54:10.740Z,15.47
2018-03-11T10:55:10.729Z,15.46
2018-03-11T10:56:10.728Z,15.36
2018-03-11T10:57:10.729Z,15.49
2018-03-11T10:58:10.730Z,15.31
2018-03-11T10:59:10.727Z,15.46
2018-03-11T11:00:10.729Z,15.57
2018-03-11T11:01:10.733Z,15.62
2018-03-11T11:02:10.773Z,15.69
2018-03-11T11:03:10.728Z,15.71
2018-03-11T11:04:10.728Z,15.69
2018-03-11T11:05:10.729Z,15.74
2018-03-11T11:06:10.733Z,15.65
2018-03-11T11:07:10.729Z,15.72
2018-03-11T11:08:10.730Z,15.72
2018-03-11T11:09:10.734Z,15.74
2018-03-11T11:10:10.729Z,15.69
2018-03-11T11:11:10.726Z,15.65
2018-03-11T11:12:10.730Z,15.74
2018-03-11T11:13:10.731Z,15.83
2018-03-11T11:14:10.733Z,15.94
2018-03-11T11:15:10.731Z,16.15
2018-03-11T11:16:10.733Z,16.08
2018-03-11T11:17:10.732Z,16.12
2018-03-11T11:18:10.733Z,16.05
2018-03-11T11:19:10.732Z,16.14
2018-03-11T11:20:10.733Z,16.12
2018-03-11T11:21:10.734Z,16.27
2018-03-11T11:22:10.736Z,16.30
2018-03-11T11:23:10.734Z,16.25
2018-03-11T11:24:10.736Z,16.24
2018-03-11T11:25:10.737Z,16.28
2018-03-11T11:26:10.737Z,16.46
2018-03-11T11:27:10.737Z,16.57
2018-03-11T11:28:10.738Z,16.56
2018-03-11T11:29:10.739Z,16.46
2018-03-11T11:30:10.739Z,16.38
2018-03-11T11:31:10.740Z,16.38
2018-03-11T11:32:10.742Z,16.27
2018-03-11T11:33:10.744Z,16.33
2018-03-11T11:34:10.746Z,16.23
2018-03-11T11:35:10.748Z,16.42
2018-03-11T11:36:10.746Z,16.35
2018-03-11T11:37:10.754Z,16.30
2018-03-11T11:38:10.748Z,16.46
2018-03-11T11:39:10.750Z,16.39
2018-03-11T11:40:10.751Z,16.25
2018-03-11T11:41:10.756Z,16.28
2018-03-11T11:42:10.754Z,16.25
2018-03-11T11:43:10.764Z,16.31
2018-03-11T11:44:10.755Z,16.57
2018-03-11T11:45:10.757Z,16.61
2018-03-11T11:46:10.762Z,16.52
2018-03-11T11:47:10.762Z,16.28
2018-03-11T11:48:10.761Z,16.38
2018-03-11T11:49:10.762Z,16.49
2018-03-11T11:50:10.765Z,16.28
2018-03-11T11:51:10.763Z,16.17
2018-03-11T11:52:10.767Z,16.21
2018-03-11T11:53:10.767Z,16.17
2018-03-11T11:54:10.768Z,16.34
2018-03-11T11:55:10.807Z,16.34
2018-03-11T11:56:10.786Z,16.28
2018-03-11T11:57:10.773Z,16.21
2018-03-11T11:58:10.785Z,16.31
2018-03-11T11:59:10.778Z,16.20
2018-03-11T12:00:10.775Z,16.27
2018-03-11T12:01:10.777Z,16.15
2018-03-11T12:02:10.779Z,16.08
2018-03-11T12:03:10.779Z,16.05
2018-03-11T12:04:10.784Z,15.92
2018-03-11T12:05:10.783Z,15.84
2018-03-11T12:06:10.783Z,15.86
2018-03-11T12:07:10.785Z,15.87
2018-03-11T12:08:10.790Z,15.82
2018-03-11T12:09:10.788Z,15.86
2018-03-11T12:10:10.790Z,15.74
2018-03-11T12:11:10.790Z,15.83
2018-03-11T12:12:10.848Z,16.01
2018-03-11T12:13:10.792Z,16.27
2018-03-11T12:14:10.794Z,16.48
2018-03-11T12:15:10.794Z,16.66
2018-03-11T12:16:10.796Z,16.75
2018-03-11T12:17:10.797Z,16.86
2018-03-11T12:18:10.824Z,16.88
2018-03-11T12:19:10.802Z,16.91
2018-03-11T12:20:10.802Z,16.86
2018-03-11T12:21:10.802Z,16.89
2018-03-11T12:22:10.803Z,16.71
2018-03-11T12:23:10.808Z,16.56
2018-03-11T12:24:10.808Z,16.57
2018-03-11T12:25:10.808Z,16.46
2018-03-11T12:26:10.810Z,16.38
2018-03-11T12:27:10.810Z,16.34
2018-03-11T12:28:10.819Z,16.42
2018-03-11T12:29:10.814Z,16.46
2018-03-11T12:30:10.817Z,16.56
2018-03-11T12:31:10.816Z,16.70
2018-03-11T12:32:10.818Z,16.66
2018-03-11T12:33:10.819Z,16.79
2018-03-11T12:34:10.820Z,16.70
2018-03-11T12:35:10.821Z,16.67
2018-03-11T12:36:10.823Z,16.66
2018-03-11T12:37:10.824Z,16.71
2018-03-11T12:38:10.828Z,16.67
2018-03-11T12:39:10.831Z,16.75
2018-03-11T12:40:10.828Z,16.71
2018-03-11T12:41:10.832Z,16.71
2018-03-11T12:42:10.827Z,16.68
2018-03-11T12:43:10.832Z,16.64
2018-03-11T12:44:10.840Z,16.64
2018-03-11T12:45:10.835Z,16.56
2018-03-11T12:46:10.840Z,16.71
2018-03-11T12:47:10.865Z,16.76
2018-03-11T12:48:10.838Z,16.88
2018-03-11T12:49:10.841Z,16.94
2018-03-11T12:50:10.840Z,16.91
2018-03-11T12:51:10.842Z,16.91
2018-03-11T12:52:10.843Z,16.94
2018-03-11T12:53:10.842Z,16.79
2018-03-11T12:54:10.847Z,16.97
2018-03-11T12:55:10.847Z,16.98
2018-03-11T12:56:10.849Z,17.00
2018-03-11T12:57:10.854Z,16.86
2018-03-11T12:58:10.852Z,16.82
2018-03-11T12:59:10.853Z,16.82
2018-03-11T13:00:10.858Z,16.81
2018-03-11T13:01:10.858Z,16.88
2018-03-11T13:02:10.858Z,16.89
2018-03-11T13:03:10.918Z,16.91
2018-03-11T13:04:10.863Z,16.97
2018-03-11T13:05:10.976Z,17.08